Terminal Aerodrome Forecast
Issued by NWS

Home | Current Version | Previous Version | Text Only | Print | Product List | Glossary On
Versions: 1 2 3 4 5 6 7 8 9 10 11 12 13 14 15 16 17 18 19 20 21 22 23 24 25 26 27 28 29 30 31 32
000
FTUS45 KREV 080529
TAFCXP
TAF
KCXP 080529Z 0806/0906 VRB04KT P6SM SCT120 BKN200
     FM081900 04006KT P6SM VCTS SCT070CB BKN100 PROB30 0820/0824
      VRB30KT 3SM TSRA BR BKN040CB
     FM090100 28009KT P6SM VCSH BKN050 OVC100=

USA.gov is the U.S. government's official web portal to all federal, state and local government web resources and services.